createdAt,value
2018-02-20T00:00:49.832Z,4.07
2018-02-20T00:02:00.262Z,4.1
2018-02-20T00:03:11.252Z,4.12
2018-02-20T00:04:21.413Z,4.11
2018-02-20T00:05:31.715Z,4.04
2018-02-20T00:06:41.764Z,4.03
2018-02-20T00:07:51.822Z,4.02
2018-02-20T00:09:01.623Z,4.08
2018-02-20T00:10:11.439Z,3.99
2018-02-20T00:11:21.239Z,4.11
2018-02-20T00:12:31.075Z,4.03
2018-02-20T00:13:40.867Z,4.11
2018-02-20T00:14:50.120Z,4.17
2018-02-20T00:15:59.917Z,4.2
2018-02-20T00:17:09.715Z,4.18
2018-02-20T00:18:19.771Z,4.15
2018-02-20T00:19:29.827Z,4.26
2018-02-20T00:20:39.618Z,4.28
2018-02-20T00:21:49.666Z,4.22
2018-02-20T00:22:59.704Z,4.32
2018-02-20T00:24:09.742Z,4.35
2018-02-20T00:25:19.814Z,4.35
2018-02-20T00:26:29.368Z,4.2
2018-02-20T00:27:38.912Z,4.35
2018-02-20T00:28:48.692Z,4.24
2018-02-20T00:29:58.492Z,4.21
2018-02-20T00:31:08.552Z,4.29
2018-02-20T00:32:18.607Z,4.21
2018-02-20T00:33:28.683Z,4.32
2018-02-20T00:34:38.474Z,4.18
2018-02-20T00:35:48.277Z,4.32
2018-02-20T00:36:58.339Z,4.21
2018-02-20T00:38:08.404Z,4.33
2018-02-20T00:39:17.936Z,4.17
2018-02-20T00:40:27.726Z,4.3
2018-02-20T00:41:37.841Z,4.18
2018-02-20T00:42:47.353Z,4.24
2018-02-20T00:43:57.149Z,4.36
2018-02-20T00:45:06.930Z,4.29
2018-02-20T00:46:16.207Z,4.36
2018-02-20T00:47:26.000Z,4.39
2018-02-20T00:48:35.786Z,4.44
2018-02-20T00:49:45.839Z,4.44
2018-02-20T00:50:55.897Z,4.36
2018-02-20T00:52:05.942Z,4.42
2018-02-20T00:53:16.000Z,4.36
2018-02-20T00:54:25.523Z,4.29
2018-02-20T00:55:35.057Z,4.39
2018-02-20T00:56:44.837Z,4.26
2018-02-20T00:57:54.894Z,4.15
2018-02-20T00:59:04.689Z,4.17
2018-02-20T01:00:13.958Z,4.21
2018-02-20T01:01:24.257Z,4.22
2018-02-20T01:02:34.305Z,4.18
2018-02-20T01:03:44.090Z,4.17
2018-02-20T01:04:54.187Z,4.15
2018-02-20T01:06:03.720Z,4.22
2018-02-20T01:07:13.511Z,4.18
2018-02-20T01:08:23.571Z,4.08
2018-02-20T01:09:33.096Z,4.14
2018-02-20T01:10:42.874Z,4.17
2018-02-20T01:11:52.920Z,4.15
2018-02-20T01:13:03.163Z,4.15
2018-02-20T01:14:12.968Z,4.14
2018-02-20T01:15:22.754Z,4.22
2018-02-20T01:16:32.823Z,4.1
2018-02-20T01:17:42.881Z,4.2
2018-02-20T01:18:52.672Z,4.14
2018-02-20T01:20:02.451Z,4.15
2018-02-20T01:21:12.234Z,4.18
2018-02-20T01:22:22.036Z,4.17
2018-02-20T01:23:31.841Z,4.11
2018-02-20T01:24:41.651Z,4.15
2018-02-20T01:25:53.752Z,4.17
2018-02-20T01:27:03.014Z,4.1
2018-02-20T01:28:13.112Z,4.21
2018-02-20T01:29:22.907Z,4.07
2018-02-20T01:30:32.436Z,4.04
2018-02-20T01:31:42.487Z,4.17
2018-02-20T01:32:52.559Z,4.02
2018-02-20T01:34:02.616Z,4.14
2018-02-20T01:35:12.685Z,4.11
2018-02-20T01:36:22.739Z,4.21
2018-02-20T01:37:32.534Z,4.14
2018-02-20T01:38:42.600Z,4.18
2018-02-20T01:39:52.645Z,4.22
2018-02-20T01:41:02.699Z,4.22
2018-02-20T01:42:12.763Z,4.22
2018-02-20T01:43:22.285Z,4.14
2018-02-20T01:44:32.341Z,4.24
2018-02-20T01:45:42.188Z,4.26
2018-02-20T01:46:52.244Z,4.29
2018-02-20T01:48:01.774Z,4.14
2018-02-20T01:49:11.301Z,4.18
2018-02-20T01:50:21.095Z,4.28
2018-02-20T01:51:30.890Z,4.21
2018-02-20T01:52:40.678Z,4.21
2018-02-20T01:53:50.726Z,4.3
2018-02-20T01:55:00.541Z,4.28
2018-02-20T01:56:10.323Z,4.24
2018-02-20T01:57:20.120Z,4.18
2018-02-20T01:58:29.897Z,4.26
2018-02-20T01:59:39.678Z,4.28
2018-02-20T02:00:49.474Z,4.15
2018-02-20T02:01:59.270Z,4.12
2018-02-20T02:03:09.064Z,4.2
2018-02-20T02:04:18.587Z,4.21
2018-02-20T02:05:28.646Z,4.18
2018-02-20T02:06:38.710Z,4.18
2018-02-20T02:07:48.809Z,4.14
2018-02-20T02:08:58.589Z,4.08
2018-02-20T02:10:08.388Z,4.2
2018-02-20T02:11:17.940Z,4.04
2018-02-20T02:12:27.744Z,4.07
2018-02-20T02:13:37.804Z,4.07
2018-02-20T02:14:47.869Z,4.1
2018-02-20T02:15:57.898Z,4
2018-02-20T02:17:07.680Z,4.02
2018-02-20T02:18:17.744Z,4.02
2018-02-20T02:19:27.528Z,4.08
2018-02-20T02:20:37.306Z,3.99
2018-02-20T02:21:47.349Z,4.03
2018-02-20T02:22:57.393Z,4
2018-02-20T02:24:07.195Z,4.04
2018-02-20T02:25:16.722Z,4.03
2018-02-20T02:26:26.778Z,3.96
2018-02-20T02:27:36.814Z,4.03
2018-02-20T02:28:46.607Z,4.02
2018-02-20T02:29:56.417Z,4
2018-02-20T02:31:06.497Z,4.02
2018-02-20T02:32:16.559Z,4.07
2018-02-20T02:33:26.341Z,4.02
2018-02-20T02:34:36.406Z,4.03
2018-02-20T02:35:46.451Z,4.07
2018-02-20T02:36:56.541Z,4.08
2018-02-20T02:38:06.592Z,4.03
2018-02-20T02:39:16.393Z,4.02
2018-02-20T02:40:26.216Z,4.02
2018-02-20T02:41:36.274Z,4.08
2018-02-20T02:42:46.073Z,3.97
2018-02-20T02:43:55.868Z,3.96
2018-02-20T02:45:05.663Z,4
2018-02-20T02:46:15.449Z,3.97
2018-02-20T02:47:25.277Z,3.96
2018-02-20T02:48:34.814Z,3.92
2018-02-20T02:49:44.620Z,3.94
2018-02-20T02:50:54.675Z,3.96
2018-02-20T02:52:04.470Z,3.89
2018-02-20T02:53:14.004Z,3.79
2018-02-20T02:54:23.519Z,3.92
2018-02-20T02:55:33.311Z,3.94
2018-02-20T02:56:43.110Z,3.94
2018-02-20T02:57:52.907Z,3.74
2018-02-20T02:59:02.713Z,3.85
2018-02-20T03:00:12.524Z,3.92
2018-02-20T03:01:22.599Z,3.78
2018-02-20T03:02:32.406Z,3.78
2018-02-20T03:03:42.475Z,3.86
2018-02-20T03:04:52.540Z,3.86
2018-02-20T03:36:59.650Z,0.86
2018-02-20T03:38:09.427Z,0.79
2018-02-20T03:39:19.469Z,0.79
2018-02-20T03:40:29.506Z,0.84
2018-02-20T03:41:39.019Z,0.89
2018-02-20T03:42:48.844Z,0.96
2018-02-20T03:43:58.336Z,0.99
2018-02-20T03:45:07.877Z,1.24
2018-02-20T03:46:17.920Z,1.39
2018-02-20T03:47:27.446Z,1.57
2018-02-20T03:48:38.950Z,1.74
2018-02-20T03:49:49.001Z,1.76
2018-02-20T03:50:59.092Z,1.9
2018-02-20T03:52:08.881Z,2.11
2018-02-20T03:53:18.665Z,2.24
2018-02-20T03:54:28.712Z,2.29
2018-02-20T03:55:38.504Z,2.47
2018-02-20T03:56:48.563Z,2.55
2018-02-20T03:57:58.347Z,2.65
2018-02-20T03:59:08.133Z,2.72
2018-02-20T04:00:18.240Z,2.78
2018-02-20T04:01:28.028Z,2.77
2018-02-20T04:02:37.832Z,2.9
2018-02-20T04:03:47.903Z,2.99
2018-02-20T04:04:57.958Z,3.02
2018-02-20T04:06:07.802Z,3.16
2018-02-20T04:07:17.599Z,3.14
2018-02-20T04:08:27.390Z,3.14
2018-02-20T04:09:37.177Z,3.17
2018-02-20T04:10:47.294Z,3.23
2018-02-20T04:11:57.360Z,3.35
2018-02-20T04:13:07.415Z,3.35
2018-02-20T04:14:17.203Z,3.29
2018-02-20T04:15:27.248Z,3.4
2018-02-20T04:16:37.313Z,3.42
2018-02-20T04:17:47.352Z,3.35
2018-02-20T04:18:57.399Z,3.34
2018-02-20T04:20:07.470Z,3.29
2018-02-20T04:21:17.513Z,3.34
2018-02-20T04:22:27.099Z,3.32
2018-02-20T04:23:36.931Z,3.4
2018-02-20T04:24:46.991Z,3.37
2018-02-20T04:25:57.041Z,3.37
2018-02-20T04:27:07.486Z,3.43
2018-02-20T04:28:16.744Z,3.45
2018-02-20T04:29:26.793Z,3.39
2018-02-20T04:30:37.497Z,3.43
2018-02-20T04:31:47.542Z,3.37
2018-02-20T04:32:59.011Z,3.37
2018-02-20T04:34:09.054Z,3.37
2018-02-20T04:35:18.846Z,3.32
2018-02-20T04:36:28.639Z,3.4
2018-02-20T04:37:38.152Z,3.32
2018-02-20T04:38:48.197Z,3.42
2018-02-20T04:39:58.061Z,3.42
2018-02-20T04:41:08.112Z,3.35
2018-02-20T04:42:18.160Z,3.35
2018-02-20T04:43:27.676Z,3.39
2018-02-20T04:44:37.198Z,3.37
2018-02-20T04:45:46.995Z,3.21
2018-02-20T04:46:56.522Z,3.32
2018-02-20T04:48:06.308Z,3.37
2018-02-20T04:49:16.361Z,3.34
2018-02-20T04:50:26.171Z,3.26
2018-02-20T04:51:35.970Z,3.35
2018-02-20T04:52:46.026Z,3.3
2018-02-20T04:53:55.832Z,3.37
2018-02-20T04:55:05.890Z,3.3
2018-02-20T04:56:15.943Z,3.34
2018-02-20T04:57:25.753Z,3.37
2018-02-20T04:58:35.550Z,3.39
2018-02-20T04:59:45.342Z,3.46
2018-02-20T05:00:55.144Z,3.56
2018-02-20T05:02:04.953Z,3.51
2018-02-20T05:03:14.751Z,3.53
2018-02-20T05:04:24.532Z,3.42
2018-02-20T05:05:34.580Z,3.39
2018-02-20T05:06:44.617Z,3.39
2018-02-20T05:07:54.682Z,3.48
2018-02-20T05:09:04.747Z,3.42
2018-02-20T05:10:14.537Z,3.43
2018-02-20T05:11:24.333Z,3.48
2018-02-20T05:12:34.135Z,3.39
2018-02-20T05:13:44.185Z,3.54
2018-02-20T05:14:53.968Z,3.46
2018-02-20T05:16:04.031Z,3.53
2018-02-20T05:17:14.104Z,3.54
2018-02-20T05:18:23.904Z,3.51
2018-02-20T05:19:33.701Z,3.58
2018-02-20T05:20:43.799Z,3.57
2018-02-20T05:21:53.323Z,3.48
2018-02-20T05:23:03.117Z,3.57
2018-02-20T05:24:12.906Z,3.43
2018-02-20T05:25:22.431Z,3.46
2018-02-20T05:26:32.264Z,3.43
2018-02-20T05:27:42.068Z,3.42
2018-02-20T05:28:51.856Z,3.45
2018-02-20T05:30:01.918Z,3.43
2018-02-20T05:31:11.721Z,3.39
2018-02-20T05:32:21.774Z,3.39
2018-02-20T05:33:31.831Z,3.35
2018-02-20T05:34:41.619Z,3.34
2018-02-20T05:35:51.427Z,3.35
2018-02-20T05:37:01.202Z,3.3
2018-02-20T05:38:11.004Z,3.35
2018-02-20T05:39:21.065Z,3.3
2018-02-20T05:40:30.867Z,3.35
2018-02-20T05:41:40.671Z,3.4
2018-02-20T05:42:50.201Z,3.35
2018-02-20T05:43:59.994Z,3.39
2018-02-20T05:45:09.809Z,3.4
2018-02-20T05:46:19.886Z,3.42
2018-02-20T05:47:29.947Z,3.42
2018-02-20T05:48:39.726Z,3.45
2018-02-20T05:49:49.835Z,3.42
2018-02-20T05:50:59.877Z,3.53
2018-02-20T05:52:09.921Z,3.48
2018-02-20T05:53:19.700Z,3.49
2018-02-20T05:54:29.488Z,3.48
2018-02-20T05:55:39.550Z,3.53
2018-02-20T05:56:49.609Z,3.54
2018-02-20T05:57:59.753Z,3.53
2018-02-20T05:59:09.536Z,3.56
2018-02-20T06:00:19.341Z,3.58
2018-02-20T06:01:29.147Z,3.45
2018-02-20T06:02:39.204Z,3.53
2018-02-20T06:03:48.992Z,3.54
2018-02-20T06:04:58.834Z,3.51
2018-02-20T06:06:08.367Z,3.53
2018-02-20T06:07:18.151Z,3.58
2018-02-20T06:08:28.200Z,3.57
2018-02-20T06:09:38.476Z,3.53
2018-02-20T06:10:48.676Z,3.57
2018-02-20T06:11:58.473Z,3.54
2018-02-20T06:13:08.008Z,3.56
2018-02-20T06:14:18.084Z,3.57
2018-02-20T06:15:27.878Z,3.57
2018-02-20T06:16:37.927Z,3.56
2018-02-20T06:17:47.742Z,3.53
2018-02-20T06:18:57.598Z,3.57
2018-02-20T06:20:07.642Z,3.54
2018-02-20T06:21:17.698Z,3.49
2018-02-20T06:22:27.741Z,3.54
2018-02-20T06:23:37.805Z,3.51
2018-02-20T06:24:47.122Z,3.51
2018-02-20T06:25:57.184Z,3.58
2018-02-20T06:27:06.977Z,3.56
2018-02-20T06:28:17.040Z,3.53
2018-02-20T06:29:27.102Z,3.67
2018-02-20T06:30:37.184Z,3.64
2018-02-20T06:31:46.969Z,3.61
2018-02-20T06:32:56.757Z,3.64
2018-02-20T06:34:06.544Z,3.64
2018-02-20T06:35:16.065Z,3.66
2018-02-20T06:36:25.865Z,3.76
2018-02-20T06:37:35.941Z,3.79
2018-02-20T06:38:46.039Z,3.78
2018-02-20T06:39:55.307Z,3.89
2018-02-20T06:41:05.148Z,3.9
2018-02-20T06:42:15.249Z,3.82
2018-02-20T06:43:25.292Z,3.85
2018-02-20T06:44:35.370Z,3.86
2018-02-20T06:45:45.417Z,3.75
2018-02-20T06:46:55.467Z,3.79
2018-02-20T06:48:05.315Z,3.76
2018-02-20T06:49:14.571Z,3.78
2018-02-20T06:50:24.362Z,3.82
2018-02-20T06:51:34.160Z,3.82
2018-02-20T06:52:43.705Z,3.85
2018-02-20T06:53:53.502Z,3.76
2018-02-20T06:55:03.311Z,3.79
2018-02-20T06:56:13.383Z,3.78
2018-02-20T06:57:23.447Z,3.89
2018-02-20T06:58:33.515Z,3.97
2018-02-20T06:59:43.314Z,3.86
2018-02-20T07:00:53.105Z,3.85
2018-02-20T07:02:02.901Z,3.89
2018-02-20T07:03:12.979Z,3.97
2018-02-20T07:04:23.018Z,4
2018-02-20T07:05:33.091Z,4.08
2018-02-20T07:06:43.138Z,4.2
2018-02-20T07:07:53.187Z,4.22
2018-02-20T07:09:03.247Z,4.28
2018-02-20T07:10:12.784Z,4.29
2018-02-20T07:11:22.591Z,4.14
2018-02-20T07:12:32.407Z,4.21
2018-02-20T07:13:42.468Z,4.21
2018-02-20T07:14:52.518Z,4.15
2018-02-20T07:16:02.058Z,4.28
2018-02-20T07:17:12.175Z,4.24
2018-02-20T07:18:21.956Z,4.33
2018-02-20T07:19:32.006Z,4.33
2018-02-20T07:20:42.085Z,4.42
2018-02-20T07:21:51.613Z,4.44
2018-02-20T07:23:01.694Z,4.44
2018-02-20T07:24:11.489Z,4.57
2018-02-20T07:25:21.280Z,4.6
2018-02-20T07:26:31.334Z,4.68
2018-02-20T07:27:41.377Z,4.74
2018-02-20T07:28:51.166Z,4.79
2018-02-20T07:30:01.233Z,4.79
2018-02-20T07:31:10.772Z,4.9
2018-02-20T07:32:20.301Z,4.91
2018-02-20T07:33:30.373Z,4.95
2018-02-20T07:34:40.431Z,4.98
2018-02-20T07:35:50.242Z,5.03
2018-02-20T07:36:59.765Z,5
2018-02-20T07:38:09.573Z,5.03
2018-02-20T07:39:19.354Z,4.95
2018-02-20T07:40:29.415Z,4.95
2018-02-20T07:41:39.216Z,5.02
2018-02-20T07:42:48.742Z,5.09
2018-02-20T07:43:58.903Z,5.16
2018-02-20T07:45:09.497Z,5.21
2018-02-20T07:46:19.560Z,5.31
2018-02-20T07:47:29.595Z,5.39
2018-02-20T07:48:39.642Z,5.3
2018-02-20T07:49:49.704Z,5.41
2018-02-20T07:50:59.819Z,5.42
2018-02-20T07:52:09.872Z,5.41
2018-02-20T07:53:19.913Z,5.42
2018-02-20T07:54:29.710Z,5.45
2018-02-20T07:55:39.772Z,5.37
2018-02-20T07:56:49.567Z,5.44
2018-02-20T07:57:59.100Z,5.37
2018-02-20T07:59:09.144Z,5.41
2018-02-20T08:00:18.919Z,5.26
2018-02-20T08:01:28.977Z,5.41
2018-02-20T08:02:39.082Z,5.39
2018-02-20T08:03:49.154Z,5.41
2018-02-20T08:04:58.951Z,5.41
2018-02-20T08:06:08.756Z,5.44
2018-02-20T08:07:18.280Z,5.52
2018-02-20T08:08:28.085Z,5.57
2018-02-20T08:09:37.867Z,5.51
2018-02-20T08:10:47.660Z,5.59
2018-02-20T08:11:57.226Z,5.69
2018-02-20T08:13:07.038Z,5.62
2018-02-20T08:14:16.291Z,5.75
2018-02-20T08:15:25.821Z,5.66
2018-02-20T08:16:35.343Z,5.8
2018-02-20T08:17:45.387Z,5.84
2018-02-20T08:18:54.922Z,5.85
2018-02-20T08:20:04.969Z,5.78
2018-02-20T08:21:14.499Z,5.98
2018-02-20T08:22:24.288Z,5.98
2018-02-20T08:23:34.073Z,6.02
2018-02-20T08:24:44.117Z,6.09
2018-02-20T08:25:54.215Z,6.02
2018-02-20T08:27:04.028Z,6.15
2018-02-20T08:28:13.552Z,6.14
2018-02-20T08:29:23.403Z,6.05
2018-02-20T08:30:33.445Z,6.05
2018-02-20T08:31:43.242Z,6.14
2018-02-20T08:32:53.025Z,6.15
2018-02-20T08:34:02.814Z,6.21
2018-02-20T08:35:12.341Z,6.17
2018-02-20T08:36:21.982Z,6.29
2018-02-20T08:37:31.827Z,6.28
2018-02-20T08:38:41.612Z,6.25
2018-02-20T08:39:51.164Z,6.33
2018-02-20T08:41:00.962Z,6.31
2018-02-20T08:42:10.743Z,6.37
2018-02-20T08:43:20.804Z,6.31
2018-02-20T08:44:30.612Z,6.39
2018-02-20T08:45:40.147Z,6.34
2018-02-20T08:46:50.211Z,6.52
2018-02-20T08:48:00.006Z,6.58
2018-02-20T08:49:10.081Z,6.76
2018-02-20T08:50:19.901Z,6.79
2018-02-20T08:51:29.701Z,6.83
2018-02-20T08:52:39.507Z,6.82
2018-02-20T08:53:49.561Z,7
2018-02-20T08:54:59.657Z,7
2018-02-20T08:56:09.445Z,6.98
2018-02-20T08:57:19.502Z,6.93
2018-02-20T08:58:29.302Z,7.03
2018-02-20T08:59:39.088Z,6.98
2018-02-20T09:00:48.883Z,6.97
2018-02-20T09:01:58.702Z,7.04
2018-02-20T09:03:08.511Z,7.08
2018-02-20T09:04:17.798Z,7.05
2018-02-20T09:05:27.855Z,7.15
2018-02-20T09:06:37.917Z,7.13
2018-02-20T09:07:47.977Z,7.16
2018-02-20T09:08:57.762Z,7.19
2018-02-20T09:10:07.300Z,7.26
2018-02-20T09:11:16.856Z,7.26
2018-02-20T09:12:26.978Z,7.22
2018-02-20T09:13:37.064Z,7.23
2018-02-20T09:14:47.118Z,7.23
2018-02-20T09:15:57.176Z,7.21
2018-02-20T09:17:06.705Z,7.09
2018-02-20T09:18:16.517Z,7.08
2018-02-20T09:19:26.304Z,7.11
2018-02-20T09:20:36.112Z,7.15
2018-02-20T09:21:46.169Z,7.15
2018-02-20T09:22:56.225Z,7.21
2018-02-20T09:24:06.020Z,7.23
2018-02-20T09:25:15.563Z,7.23
2018-02-20T09:26:25.379Z,7.18
2018-02-20T09:27:35.465Z,7.23
2018-02-20T09:28:45.266Z,7.22
2018-02-20T09:29:55.070Z,7.23
2018-02-20T09:31:04.851Z,7.37
2018-02-20T09:32:14.921Z,7.21
2018-02-20T09:33:26.473Z,7.44
2018-02-20T09:34:36.006Z,7.51
2018-02-20T09:35:46.053Z,7.58
2018-02-20T09:36:56.166Z,7.74
2018-02-20T09:38:05.957Z,7.75
2018-02-20T09:39:15.479Z,7.74
2018-02-20T09:40:25.528Z,7.78
2018-02-20T09:41:35.372Z,7.71
2018-02-20T09:42:45.504Z,7.82
2018-02-20T09:43:55.561Z,7.8
2018-02-20T09:45:05.347Z,7.83
2018-02-20T09:46:15.146Z,7.86
2018-02-20T09:47:24.406Z,7.82
2018-02-20T09:48:33.992Z,7.99
2018-02-20T09:49:44.047Z,7.99
2018-02-20T09:50:54.106Z,7.91
2018-02-20T09:52:03.892Z,8.03
2018-02-20T09:53:13.681Z,8.13
2018-02-20T09:54:23.517Z,8.06
2018-02-20T09:55:33.320Z,8.17
2018-02-20T09:56:42.846Z,8.13
2018-02-20T09:57:52.902Z,8.14
2018-02-20T09:59:02.448Z,8.19
2018-02-20T10:00:11.974Z,8.01
2018-02-20T10:01:21.752Z,7.91
2018-02-20T10:02:31.036Z,7.86
2018-02-20T10:03:40.825Z,7.75
2018-02-20T10:04:50.903Z,7.64
2018-02-20T10:06:00.963Z,7.63
2018-02-20T10:07:11.032Z,7.59
2018-02-20T10:08:20.819Z,7.63
2018-02-20T10:09:30.867Z,7.63
2018-02-20T10:10:40.932Z,7.74
2018-02-20T10:11:50.833Z,7.71
2018-02-20T10:13:00.898Z,7.73
2018-02-20T10:14:10.955Z,7.63
2018-02-20T10:15:21.043Z,7.63
2018-02-20T10:16:30.835Z,7.56
2018-02-20T10:17:40.646Z,7.7
2018-02-20T10:18:50.708Z,7.77
2018-02-20T10:20:00.770Z,7.92
2018-02-20T10:21:10.831Z,7.92
2018-02-20T10:22:20.633Z,7.96
2018-02-20T10:23:30.432Z,7.96
2018-02-20T10:24:40.227Z,8.1
2018-02-20T10:25:50.297Z,8.03
2018-02-20T10:26:59.816Z,7.98
2018-02-20T10:28:09.337Z,7.98
2018-02-20T10:29:19.423Z,7.93
2018-02-20T10:30:28.946Z,7.92
2018-02-20T10:31:38.997Z,7.89
2018-02-20T10:32:49.079Z,7.86
2018-02-20T10:33:59.130Z,7.92
2018-02-20T10:35:08.422Z,7.89
2018-02-20T10:36:18.498Z,7.85
2018-02-20T10:37:28.306Z,7.86
2018-02-20T10:38:38.362Z,7.88
2018-02-20T10:39:48.421Z,7.85
2018-02-20T10:40:58.211Z,7.89
2018-02-20T10:42:08.301Z,7.82
2018-02-20T10:43:18.082Z,7.74
2018-02-20T10:44:27.614Z,7.64
2018-02-20T10:45:37.419Z,7.63
2018-02-20T10:46:47.225Z,7.73
2018-02-20T10:47:57.261Z,7.89
2018-02-20T10:49:07.316Z,8.01
2018-02-20T10:50:16.844Z,8.06
2018-02-20T10:51:26.888Z,8.09
2018-02-20T10:52:36.969Z,8.13
2018-02-20T10:53:48.362Z,8.19
2018-02-20T10:54:58.426Z,8.25
2018-02-20T10:56:08.617Z,8.24
2018-02-20T10:57:18.681Z,8.06
2018-02-20T10:58:28.543Z,7.95
2018-02-20T10:59:38.377Z,7.91
2018-02-20T11:00:48.195Z,7.93
2018-02-20T11:01:58.314Z,7.83
2018-02-20T11:03:12.679Z,7.88
2018-02-20T11:04:22.567Z,7.86
2018-02-20T11:05:32.734Z,7.77
2018-02-20T11:06:42.527Z,7.73
2018-02-20T11:07:53.715Z,7.75
2018-02-20T11:09:06.147Z,7.58
2018-02-20T11:10:20.595Z,7.47
2018-02-20T11:11:35.266Z,7.34
2018-02-20T11:12:48.483Z,7.26
2018-02-20T11:14:01.881Z,7.04
2018-02-20T11:15:15.364Z,7.05
2018-02-20T11:16:30.892Z,7.15
2018-02-20T11:17:45.103Z,7.13
2018-02-20T11:18:56.463Z,7.26
2018-02-20T11:20:06.972Z,7.22
2018-02-20T11:21:17.463Z,7.36
2018-02-20T11:22:27.278Z,7.48
2018-02-20T11:23:36.807Z,7.54
2018-02-20T11:24:46.593Z,7.64
2018-02-20T11:25:56.392Z,7.58
2018-02-20T11:27:07.290Z,7.52
2018-02-20T11:28:17.643Z,7.45
2018-02-20T11:29:27.698Z,7.31
2018-02-20T11:30:37.757Z,7.21
2018-02-20T11:31:47.295Z,7.23
2018-02-20T11:32:57.101Z,7.21
2018-02-20T11:34:06.946Z,7.08
2018-02-20T11:35:17.015Z,7.13
2018-02-20T11:36:26.548Z,7.22
2018-02-20T11:37:36.613Z,7.19
2018-02-20T11:38:46.654Z,7.08
2018-02-20T11:39:56.714Z,7
2018-02-20T11:41:06.801Z,7.13
2018-02-20T11:42:16.853Z,6.97
2018-02-20T11:43:26.920Z,6.93
2018-02-20T11:44:37.555Z,6.86
2018-02-20T11:45:48.278Z,6.9
2018-02-20T11:46:58.331Z,6.85
2018-02-20T11:48:08.386Z,6.86
2018-02-20T11:49:18.448Z,6.78
2018-02-20T11:50:28.492Z,6.76
2018-02-20T11:51:38.309Z,6.73
2018-02-20T11:52:48.357Z,6.76
2018-02-20T11:53:58.687Z,6.7
2018-02-20T11:55:08.739Z,6.79
2018-02-20T11:56:18.537Z,6.78
2018-02-20T11:57:28.351Z,6.85
2018-02-20T11:58:38.413Z,6.95
2018-02-20T11:59:48.197Z,6.97
2018-02-20T12:00:57.998Z,6.94
2018-02-20T12:02:07.790Z,7
2018-02-20T12:03:17.626Z,6.98
2018-02-20T12:04:27.160Z,7.05
2018-02-20T12:05:37.236Z,6.95
2018-02-20T12:06:47.342Z,6.9
2018-02-20T12:07:57.402Z,6.83
2018-02-20T12:09:06.945Z,6.78
2018-02-20T12:10:16.226Z,6.75
2018-02-20T12:11:26.016Z,6.67
2018-02-20T12:12:35.816Z,6.57
2018-02-20T12:13:45.354Z,6.46
2018-02-20T12:14:55.443Z,6.39
2018-02-20T12:16:05.533Z,6.29
2018-02-20T12:17:15.497Z,6.14
2018-02-20T12:18:25.953Z,6.14
2018-02-20T12:19:36.033Z,6.17
2018-02-20T12:20:46.136Z,6.02
2018-02-20T12:21:55.971Z,5.99
2018-02-20T12:23:06.092Z,5.98
2018-02-20T12:24:15.925Z,5.99
2018-02-20T12:25:25.464Z,5.88
2018-02-20T12:26:35.263Z,6.02
2018-02-20T12:27:45.344Z,5.98
2018-02-20T12:28:55.438Z,5.92
2018-02-20T12:30:05.560Z,5.99
2018-02-20T12:31:15.668Z,6.02
2018-02-20T12:32:25.470Z,6
2018-02-20T12:33:35.524Z,5.99
2018-02-20T12:34:45.084Z,5.89
2018-02-20T12:35:54.690Z,6
2018-02-20T12:37:04.510Z,5.96
2018-02-20T12:38:14.339Z,6.05
2018-02-20T12:39:24.415Z,6
2018-02-20T12:40:34.215Z,6.09
2018-02-20T12:41:44.353Z,5.99
2018-02-20T12:42:54.210Z,6.02
2018-02-20T12:44:04.308Z,6
2018-02-20T12:45:14.405Z,5.88
2018-02-20T12:46:24.469Z,5.84
2018-02-20T12:47:34.606Z,5.87
2018-02-20T12:48:44.673Z,5.91
2018-02-20T12:49:54.776Z,5.96
2018-02-20T12:51:04.579Z,6.06
2018-02-20T12:52:16.169Z,6.03
2018-02-20T12:53:26.671Z,6.15
2018-02-20T12:54:36.500Z,6.39
2018-02-20T12:55:46.314Z,6.43
2018-02-20T12:56:56.421Z,6.55
2018-02-20T12:58:06.248Z,6.65
2018-02-20T12:59:16.496Z,6.78
2018-02-20T13:00:26.609Z,6.76
2018-02-20T13:01:36.694Z,6.93
2018-02-20T13:02:47.026Z,6.85
2018-02-20T13:03:57.109Z,6.95
2018-02-20T13:05:07.352Z,7.11
2018-02-20T13:06:17.224Z,7.21
2018-02-20T13:07:27.283Z,7.36
2018-02-20T13:08:37.141Z,7.4
2018-02-20T13:09:47.244Z,7.44
2018-02-20T13:10:58.463Z,7.47
2018-02-20T13:12:08.521Z,7.34
2018-02-20T13:13:18.599Z,7.49
2018-02-20T13:14:28.416Z,7.4
2018-02-20T13:15:38.247Z,7.37
2018-02-20T13:16:48.140Z,7.39
2018-02-20T13:17:57.988Z,7.34
2018-02-20T13:19:08.102Z,7.21
2018-02-20T13:20:17.906Z,7.23
2018-02-20T13:21:27.996Z,7.23
2018-02-20T13:22:38.320Z,7.27
2018-02-20T13:23:48.421Z,7.22
2018-02-20T13:24:58.504Z,7.23
2018-02-20T13:26:08.588Z,7.23
2018-02-20T13:27:18.422Z,7.22
2018-02-20T13:28:28.512Z,7.22
2018-02-20T13:29:38.680Z,7.15
2018-02-20T13:30:48.806Z,7.13
2018-02-20T13:32:00.036Z,7.05
2018-02-20T13:33:10.193Z,7.18
2018-02-20T13:34:20.020Z,7.04
2018-02-20T13:35:29.559Z,7.13
2018-02-20T13:36:39.658Z,7.11
2018-02-20T13:37:49.000Z,7.18
2018-02-20T13:38:58.551Z,7.08
2018-02-20T13:40:08.102Z,7.13
2018-02-20T13:41:17.717Z,7.13
2018-02-20T13:42:27.547Z,7.13
2018-02-20T13:43:37.339Z,7.11
2018-02-20T13:44:47.412Z,7.01
2018-02-20T13:45:57.213Z,6.98
2018-02-20T13:47:07.100Z,6.78
2018-02-20T13:48:16.915Z,6.62
2018-02-20T13:49:26.712Z,6.54
2018-02-20T13:50:36.761Z,6.47
2018-02-20T13:51:46.835Z,6.49
2018-02-20T13:52:56.397Z,6.37
2018-02-20T13:54:06.472Z,6.17
2018-02-20T13:55:16.271Z,6.2
2018-02-20T13:56:26.117Z,6.1
2018-02-20T13:57:35.676Z,6.18
2018-02-20T13:58:45.832Z,6.18
2018-02-20T13:59:55.903Z,6.15
2018-02-20T14:01:05.720Z,6.03
2018-02-20T14:02:15.809Z,5.98
2018-02-20T14:03:25.606Z,5.88
2018-02-20T14:04:35.196Z,5.82
2018-02-20T14:05:44.740Z,5.72
2018-02-20T14:06:54.839Z,5.77
2018-02-20T14:08:04.897Z,5.75
2018-02-20T14:09:14.968Z,5.78
2018-02-20T14:10:24.609Z,5.75
2018-02-20T14:11:34.654Z,5.8
2018-02-20T14:12:44.453Z,5.73
2018-02-20T14:13:54.248Z,5.78
2018-02-20T14:15:04.291Z,5.78
2018-02-20T14:16:14.148Z,5.77
2018-02-20T14:17:24.228Z,5.88
2018-02-20T14:18:33.768Z,5.89
2018-02-20T14:19:43.853Z,5.92
2018-02-20T14:20:53.666Z,6.05
2018-02-20T14:22:03.974Z,6.07
2018-02-20T14:23:13.514Z,6.26
2018-02-20T14:24:24.251Z,6.28
2018-02-20T14:25:34.127Z,6.25
2018-02-20T14:26:44.201Z,6.21
2018-02-20T14:27:54.266Z,6.07
2018-02-20T14:29:04.055Z,6.2
2018-02-20T14:30:13.860Z,6.1
2018-02-20T14:31:23.709Z,6.17
2018-02-20T14:32:33.786Z,6.15
2018-02-20T14:33:43.851Z,6.14
2018-02-20T14:34:53.689Z,6.26
2018-02-20T14:36:03.230Z,6.24
2018-02-20T14:37:13.037Z,6.2
2018-02-20T14:38:22.848Z,6.29
2018-02-20T14:39:32.653Z,6.26
2018-02-20T14:40:42.450Z,6.28
2018-02-20T14:41:52.522Z,6.28
2018-02-20T14:43:02.574Z,6.28
2018-02-20T14:44:12.385Z,6.29
2018-02-20T14:45:22.216Z,6.34
2018-02-20T14:46:32.012Z,6.28
2018-02-20T14:47:42.041Z,6.31
2018-02-20T14:48:51.838Z,6.36
2018-02-20T14:50:01.924Z,6.26
2018-02-20T14:51:11.720Z,6.1
2018-02-20T14:52:21.265Z,6.09
2018-02-20T14:53:31.069Z,6.14
2018-02-20T14:54:42.036Z,6.07
2018-02-20T14:55:51.568Z,5.96
2018-02-20T14:57:01.631Z,6.02
2018-02-20T14:58:11.169Z,5.99
2018-02-20T14:59:21.230Z,5.88
2018-02-20T15:00:31.284Z,5.82
2018-02-20T15:01:41.083Z,5.85
2018-02-20T15:02:50.792Z,5.8
2018-02-20T15:04:00.587Z,5.85
2018-02-20T15:05:10.664Z,5.82
2018-02-20T15:06:20.453Z,5.87
2018-02-20T15:07:30.247Z,5.88
2018-02-20T15:08:40.100Z,5.98
2018-02-20T15:09:50.173Z,5.88
2018-02-20T15:10:59.967Z,5.87
2018-02-20T15:12:09.509Z,5.91
2018-02-20T15:13:19.301Z,5.95
2018-02-20T15:14:29.396Z,5.89
2018-02-20T15:15:39.511Z,5.99
2018-02-20T15:16:49.326Z,5.85
2018-02-20T15:17:59.425Z,5.75
2018-02-20T15:19:09.481Z,5.78
2018-02-20T15:20:19.013Z,5.72
2018-02-20T15:21:29.094Z,5.64
2018-02-20T15:22:39.181Z,5.62
2018-02-20T15:23:49.247Z,5.59
2018-02-20T15:24:59.314Z,5.57
2018-02-20T15:26:09.378Z,5.52
2018-02-20T15:27:19.198Z,5.44
2018-02-20T15:28:28.993Z,5.41
2018-02-20T15:29:38.853Z,5.34
2018-02-20T15:30:48.683Z,5.23
2018-02-20T15:31:58.746Z,5.26
2018-02-20T15:33:08.817Z,5.28
2018-02-20T15:34:18.364Z,5.26
2018-02-20T15:35:28.464Z,5.28
2018-02-20T15:36:38.281Z,5.13
2018-02-20T15:37:48.152Z,5
2018-02-20T15:38:57.443Z,5.09
2018-02-20T15:40:07.525Z,5.1
2018-02-20T15:41:17.311Z,5
2018-02-20T15:42:27.394Z,4.85
2018-02-20T15:43:37.477Z,4.83
2018-02-20T15:44:47.531Z,4.69
2018-02-20T15:45:57.357Z,4.6
2018-02-20T15:47:07.154Z,4.5
2018-02-20T15:48:16.697Z,4.57
2018-02-20T15:49:26.563Z,4.61
2018-02-20T15:50:36.357Z,4.51
2018-02-20T15:51:46.438Z,4.5
2018-02-20T15:52:55.993Z,4.38
2018-02-20T15:54:06.086Z,4.39
2018-02-20T15:55:15.890Z,4.46
2018-02-20T15:56:26.137Z,4.3
2018-02-20T15:57:36.218Z,4.42
2018-02-20T15:58:45.772Z,4.36
2018-02-20T15:59:55.882Z,4.22
2018-02-20T16:01:05.763Z,4.15
2018-02-20T16:02:15.885Z,4.28
2018-02-20T16:03:25.682Z,4.29
2018-02-20T16:04:35.499Z,4.26
2018-02-20T16:05:45.034Z,4.22